Time;durP1;ratioP1;P1;durP2;ratioP2;P2;SDS_P1;SDS_P2;PMS_P1;PMS_P2;Temp;Humidity;BMP_temperature;BMP_pressure;BME280_temperature;BME280_humidity;BME280_pressure;Samples;Min_cycle;Max_cycle;Signal;HPM_P1;HPM_P2
2022/01/14 00:01:36;;;;;;;44.45;21.55;;;;;;;1.45;95.93;103746.94;5046117;28;20129;-75
2022/01/14 00:04:02;;;;;;;45.65;20.40;;;;;;;1.45;95.94;103746.03;5032899;28;20037;-75
2022/01/14 00:06:27;;;;;;;66.50;21.17;;;;;;;1.44;95.70;103751.97;5035009;28;20140;-75
2022/01/14 00:09:00;;;;;;;45.40;19.45;;;;;;;1.44;95.53;103751.97;5015675;28;20041;-75
2022/01/14 00:11:29;;;;;;;83.57;21.92;;;;;;;1.47;95.91;103754.81;5033195;28;20060;-75
2022/01/14 00:13:58;;;;;;;61.70;25.10;;;;;;;1.44;95.83;103752.91;5015830;28;20091;-75
2022/01/14 00:16:23;;;;;;;103.63;24.08;;;;;;;1.43;95.82;103747.63;5035275;28;20029;-75
2022/01/14 00:18:49;;;;;;;58.17;19.55;;;;;;;1.42;95.44;103745.81;5034068;28;20043;-75
2022/01/14 00:21:14;;;;;;;57.92;22.38;;;;;;;1.42;96.06;103746.69;5014328;28;20037;-75
2022/01/14 00:23:42;;;;;;;44.50;19.75;;;;;;;1.42;95.75;103741.53;5048486;28;20473;-75
2022/01/14 00:31:45;;;;;;;67.90;21.00;;;;;;;1.42;95.56;103732.88;5050465;28;20091;-75
2022/01/14 00:34:13;;;;;;;76.93;21.20;;;;;;;1.40;95.43;103737.06;5049284;28;20025;-75
2022/01/14 00:36:39;;;;;;;48.53;20.08;;;;;;;1.38;95.61;103732.69;5022130;28;20049;-75
2022/01/14 00:39:07;;;;;;;41.60;17.63;;;;;;;1.38;95.69;103727.50;5030447;28;20466;-75
2022/01/14 00:41:34;;;;;;;49.03;18.85;;;;;;;1.38;96.04;103724.03;5047808;28;20032;-75
2022/01/14 00:44:02;;;;;;;40.17;18.42;;;;;;;1.35;96.08;103722.13;5047092;28;20035;-75
2022/01/14 00:46:31;;;;;;;60.70;18.38;;;;;;;1.32;95.65;103720.97;5033250;28;20486;-75
2022/01/14 00:48:57;;;;;;;71.63;17.63;;;;;;;1.28;95.90;103713.78;5032573;28;20037;-75
2022/01/14 00:51:23;;;;;;;59.13;18.02;;;;;;;1.25;95.66;103706.75;5040463;28;20037;-76
2022/01/14 00:53:49;;;;;;;62.50;17.58;;;;;;;1.21;95.81;103707.31;5049180;28;20074;-75
2022/01/14 00:59:15;;;;;;;62.97;15.35;;;;;;;1.18;95.59;103702.81;5016913;28;20041;-75
2022/01/14 01:01:56;;;;;;;39.15;15.88;;;;;;;1.17;95.82;103707.84;5050483;28;20031;-75
2022/01/14 01:04:38;;;;;;;52.00;14.18;;;;;;;1.16;95.73;103706.94;5046973;28;20036;-75
2022/01/14 01:07:06;;;;;;;49.30;15.07;;;;;;;1.15;96.01;103709.41;5035752;28;20041;-75
2022/01/14 01:09:36;;;;;;;31.80;17.85;;;;;;;1.12;95.93;103685.94;5049358;28;20028;-75
2022/01/14 01:15:04;;;;;;;48.53;16.30;;;;;;;1.13;96.03;103680.00;5034067;28;20576;-75
2022/01/14 01:17:20;;;;;;;41.72;15.05;;;;;;;1.13;96.11;103691.22;5049016;28;20420;-75
2022/01/14 01:19:45;;;;;;;51.92;16.38;;;;;;;1.14;95.68;103686.97;5022485;28;20033;-75
2022/01/14 01:22:11;;;;;;;35.45;15.85;;;;;;;1.13;96.12;103685.19;5033274;28;20040;-75
2022/01/14 01:24:37;;;;;;;24.45;16.08;;;;;;;1.11;95.73;103695.41;5049207;28;20033;-74
2022/01/14 01:27:06;;;;;;;46.15;16.15;;;;;;;1.11;95.77;103686.75;5032859;28;20056;-74
2022/01/14 01:29:47;;;;;;;48.40;16.35;;;;;;;1.12;96.20;103680.78;5048614;28;20059;-74
2022/01/14 01:32:13;;;;;;;46.97;16.90;;;;;;;1.12;95.71;103675.63;5038885;28;20032;-76
2022/01/14 01:34:38;;;;;;;28.15;14.07;;;;;;;1.12;96.19;103685.94;5033607;28;20029;-74
2022/01/14 01:37:04;;;;;;;69.40;17.80;;;;;;;1.09;95.85;103680.56;5052739;28;20095;-74
2022/01/14 01:39:33;;;;;;;61.22;17.63;;;;;;;1.08;95.88;103686.50;5043618;28;20385;-75
2022/01/14 01:42:01;;;;;;;32.95;16.08;;;;;;;1.06;96.27;103694.16;5048437;28;20513;-75
2022/01/14 01:44:28;;;;;;;44.67;16.55;;;;;;;1.07;95.98;103685.63;5036455;28;20111;-75
2022/01/14 01:46:56;;;;;;;47.00;16.92;;;;;;;1.08;96.03;103686.50;5046949;28;20028;-74
2022/01/14 01:49:24;;;;;;;30.52;14.27;;;;;;;1.09;95.81;103676.28;5045970;28;20029;-74
2022/01/14 01:51:51;;;;;;;29.88;16.15;;;;;;;1.11;96.25;103679.00;5044618;28;20477;-75
2022/01/14 01:54:18;;;;;;;46.33;15.23;;;;;;;1.09;96.23;103683.16;5047890;28;20028;-75
2022/01/14 01:56:44;;;;;;;39.10;15.05;;;;;;;1.08;96.32;103671.94;5048539;28;20025;-74
2022/01/14 01:59:12;;;;;;;38.17;14.82;;;;;;;1.06;95.63;103673.50;5029135;28;20048;-75
2022/01/14 02:01:39;;;;;;;31.85;16.08;;;;;;;1.07;95.33;103679.56;5024524;28;20444;-75
2022/01/14 02:04:05;;;;;;;53.40;15.98;;;;;;;1.06;95.92;103682.94;5048837;28;20151;-75
2022/01/14 02:06:31;;;;;;;51.50;16.92;;;;;;;1.02;96.02;103674.97;5032767;28;20033;-75
2022/01/14 02:08:57;;;;;;;39.47;16.00;;;;;;;1.01;96.01;103680.91;5029332;28;20040;-75
2022/01/14 02:11:23;;;;;;;39.50;15.70;;;;;;;0.99;95.72;103676.41;5036263;28;20037;-75
2022/01/14 02:13:50;;;;;;;36.30;15.40;;;;;;;1.01;95.92;103680.03;5032407;28;20083;-75
2022/01/14 02:16:35;;;;;;;59.67;16.90;;;;;;;0.98;95.70;103659.16;5036361;28;20029;-75
2022/01/14 02:19:16;;;;;;;30.05;13.85;;;;;;;0.99;95.68;103667.00;5025421;28;20264;-75
2022/01/14 02:24:55;;;;;;;32.08;13.45;;;;;;;0.97;96.14;103657.34;5054268;28;20047;-72
2022/01/14 02:27:19;;;;;;;51.95;15.50;;;;;;;0.94;95.70;103652.84;5048100;28;20037;-72
2022/01/14 02:29:47;;;;;;;49.05;15.95;;;;;;;0.93;95.26;103658.78;5029374;28;20040;-72
2022/01/14 02:32:13;;;;;;;46.17;14.20;;;;;;;0.91;95.42;103660.38;5032019;28;20496;-72
2022/01/14 02:34:41;;;;;;;38.47;13.77;;;;;;;0.92;95.85;103661.25;5029096;28;20037;-72
2022/01/14 02:37:06;;;;;;;49.95;14.95;;;;;;;0.89;96.05;103661.97;5027723;28;20417;-70
2022/01/14 02:39:32;;;;;;;53.90;14.93;;;;;;;0.88;95.44;103662.72;5034964;28;20043;-73
2022/01/14 02:41:58;;;;;;;44.03;13.43;;;;;;;0.86;95.71;103665.19;5048438;28;20067;-72
2022/01/14 02:44:25;;;;;;;45.88;14.07;;;;;;;0.85;96.06;103667.66;5015054;28;20036;-72
2022/01/14 02:46:58;;;;;;;56.92;16.00;;;;;;;0.85;95.77;103668.56;5036069;28;20039;-72
2022/01/14 02:49:28;;;;;;;45.80;16.00;;;;;;;0.84;95.59;103665.88;5031595;28;20032;-72
2022/01/14 02:51:54;;;;;;;78.20;14.80;;;;;;;0.80;95.61;103662.16;5037942;28;20456;-71
2022/01/14 02:54:23;;;;;;;40.00;12.88;;;;;;;0.80;95.68;103643.19;5029159;28;20555;-71
2022/01/14 02:56:52;;;;;;;38.33;12.75;;;;;;;0.78;95.55;103626.69;5030126;28;20025;-72
2022/01/14 02:59:20;;;;;;;49.95;13.68;;;;;;;0.73;95.45;103631.50;5044141;28;20621;-73
2022/01/14 03:01:47;;;;;;;49.97;16.10;;;;;;;0.72;95.79;103644.28;5013084;28;20033;-72
2022/01/14 03:04:21;;;;;;;58.35;13.57;;;;;;;0.72;95.64;103633.97;5049521;28;20033;-73
2022/01/14 03:06:49;;;;;;;44.90;14.98;;;;;;;0.69;95.79;103642.41;5048914;28;20090;-71
2022/01/14 03:09:15;;;;;;;37.95;12.95;;;;;;;0.69;95.71;103637.25;5021569;28;20048;-72
2022/01/14 03:11:52;;;;;;;40.42;13.55;;;;;;;0.71;95.84;103643.41;5036582;28;20032;-72
2022/01/14 03:14:23;;;;;;;65.43;14.68;;;;;;;0.71;95.50;103647.69;5047247;28;20024;-71
2022/01/14 03:16:54;;;;;;;31.88;12.40;;;;;;;0.72;95.73;103654.63;5022832;28;20061;-72
2022/01/14 03:19:24;;;;;;;31.92;12.80;;;;;;;0.69;95.74;103640.72;5064425;28;20025;-71
2022/01/14 03:21:52;;;;;;;49.47;12.73;;;;;;;0.69;96.04;103632.97;5041641;28;20432;-72
2022/01/14 03:25:35;;;;;;;35.33;13.20;;;;;;;0.71;95.95;103639.94;5027935;28;20048;-73
2022/01/14 03:27:06;;;;;;;84.93;14.52;;;;;;;0.73;95.92;103646.09;5047058;28;20076;-72
2022/01/14 03:29:32;;;;;;;71.25;14.73;;;;;;;0.73;95.79;103643.53;5044234;28;20052;-72
2022/01/14 03:31:58;;;;;;;34.55;13.38;;;;;;;0.70;95.63;103639.03;5015593;28;20511;-71
2022/01/14 03:34:26;;;;;;;32.00;13.27;;;;;;;0.72;95.88;103641.72;5028040;28;20129;-72
2022/01/14 03:36:52;;;;;;;50.60;13.65;;;;;;;0.71;95.93;103637.38;5048416;28;20095;-72
2022/01/14 03:39:18;;;;;;;40.75;13.50;;;;;;;0.75;95.95;103639.34;5045932;28;20024;-72
2022/01/14 03:41:44;;;;;;;41.90;14.77;;;;;;;0.74;95.86;103632.41;5048815;28;20044;-72
2022/01/14 03:44:09;;;;;;;61.20;13.82;;;;;;;0.71;95.59;103633.09;5033883;28;20040;-71
2022/01/14 03:46:35;;;;;;;46.67;13.82;;;;;;;0.74;96.14;103633.31;5033858;28;20032;-71
2022/01/14 03:49:01;;;;;;;43.45;13.20;;;;;;;0.73;95.59;103623.75;5034964;28;20029;-71
2022/01/14 03:51:28;;;;;;;54.25;14.85;;;;;;;0.72;95.72;103626.22;5028055;28;20025;-72
2022/01/14 03:53:57;;;;;;;69.10;15.50;;;;;;;0.72;95.95;103624.56;5050297;28;20021;-71
2022/01/14 03:56:23;;;;;;;84.32;15.80;;;;;;;0.69;95.63;103621.75;5038558;28;20083;-71
2022/01/14 03:58:49;;;;;;;68.50;16.33;;;;;;;0.66;95.84;103626.69;5029251;28;20030;-71
2022/01/14 04:01:15;;;;;;;76.07;13.60;;;;;;;0.65;95.53;103625.78;5022635;28;20029;-70
2022/01/14 04:03:41;;;;;;;42.25;16.13;;;;;;;0.67;95.80;103623.31;5034864;28;20036;-71
2022/01/14 04:06:07;;;;;;;65.35;14.57;;;;;;;0.67;95.82;103625.91;5026702;28;20039;-70
2022/01/14 04:08:34;;;;;;;53.33;13.07;;;;;;;0.65;96.17;103618.03;5049253;28;20052;-71
2022/01/14 04:11:01;;;;;;;68.03;15.50;;;;;;;0.66;95.62;103622.44;5032639;28;20114;-70
2022/01/14 04:16:14;;;;;;;70.25;15.77;;;;;;;0.65;95.90;103618.03;5050433;28;20093;-70
2022/01/14 04:18:40;;;;;;;61.33;14.48;;;;;;;0.62;95.95;103617.81;5025037;28;20116;-71
2022/01/14 04:21:05;;;;;;;31.55;11.90;;;;;;;0.61;95.99;103616.03;5048359;28;20151;-71
2022/01/14 04:23:31;;;;;;;82.10;15.10;;;;;;;0.59;95.79;103612.44;5037047;28;20033;-70
2022/01/14 04:25:57;;;;;;;64.95;14.95;;;;;;;0.57;95.75;103608.84;5026410;28;20040;-70
2022/01/14 04:28:25;;;;;;;99.45;17.30;;;;;;;0.57;95.88;103619.16;5050662;28;20024;-71
2022/01/14 04:30:54;;;;;;;84.72;14.10;;;;;;;0.58;95.69;103620.97;5047618;28;20543;-71
2022/01/14 04:33:23;;;;;;;70.45;14.60;;;;;;;0.56;96.02;103621.63;5025677;28;20568;-71
2022/01/14 04:35:49;;;;;;;69.00;13.65;;;;;;;0.53;95.94;103617.13;5017992;28;20025;-71
2022/01/14 04:38:15;;;;;;;47.47;12.23;;;;;;;0.54;95.89;103613.78;5033898;28;20025;-71
2022/01/14 04:40:40;;;;;;;43.65;11.98;;;;;;;0.52;95.88;103613.66;5052721;28;20054;-70
2022/01/14 04:43:09;;;;;;;38.45;11.35;;;;;;;0.51;95.98;103606.69;5017710;28;20078;-71
2022/01/14 04:48:09;;;;;;;56.00;14.32;;;;;;;0.49;96.01;103604.81;5051773;28;20111;-71
2022/01/14 04:50:34;;;;;;;39.15;12.48;;;;;;;0.45;95.95;103597.63;5047599;28;20025;-71
2022/01/14 04:53:03;;;;;;;56.05;12.27;;;;;;;0.45;95.91;103600.22;5052984;28;20031;-71
2022/01/14 04:55:29;;;;;;;38.28;12.57;;;;;;;0.45;95.68;103595.94;5035095;28;20413;-72
2022/01/14 04:57:56;;;;;;;44.38;12.40;;;;;;;0.44;95.61;103596.72;5036974;28;20101;-72
2022/01/14 05:00:28;;;;;;;60.35;12.88;;;;;;;0.41;95.56;103583.59;5053528;28;20429;-71
2022/01/14 05:02:55;;;;;;;106.57;17.80;;;;;;;0.39;95.68;103577.44;5049988;28;20021;-72
2022/01/14 05:05:24;;;;;;;31.17;12.27;;;;;;;0.39;95.65;103571.34;5051376;28;20028;-72
2022/01/14 05:07:51;;;;;;;65.60;15.50;;;;;;;0.38;95.75;103561.84;5053359;28;20036;-72
2022/01/14 05:12:56;;;;;;;69.43;15.18;;;;;;;0.38;95.47;103567.00;5069281;28;20087;-73
2022/01/14 05:15:22;;;;;;;95.60;15.85;;;;;;;0.34;95.89;103568.44;5035565;28;20495;-72
2022/01/14 05:17:49;;;;;;;56.53;13.32;;;;;;;0.31;95.86;103563.94;5052852;28;20375;-72
2022/01/14 05:20:16;;;;;;;36.35;12.10;;;;;;;0.33;96.02;103569.22;5051191;28;20119;-72
2022/01/14 05:22:42;;;;;;;68.45;14.05;;;;;;;0.29;95.74;103560.38;5069322;28;20255;-72
2022/01/14 05:25:08;;;;;;;28.00;11.63;;;;;;;0.28;96.11;103563.72;5052826;28;20066;-72
2022/01/14 05:27:37;;;;;;;75.53;14.95;;;;;;;0.28;95.69;103571.47;5020097;28;20044;-72
2022/01/14 05:30:08;;;;;;;58.63;13.60;;;;;;;0.26;96.06;103564.38;5053015;28;20047;-72
2022/01/14 05:32:36;;;;;;;;;;;;;;;0.31;95.75;103575.94;5052912;28;20024;-71
2022/01/14 05:35:03;;;;;;;117.20;14.98;;;;;;;0.25;95.61;103568.66;5053067;28;19912;-72
2022/01/14 05:37:28;;;;;;;81.10;14.25;;;;;;;0.26;96.05;103565.31;5049171;28;20043;-72
2022/01/14 05:39:56;;;;;;;63.60;13.18;;;;;;;0.27;96.15;103572.22;5036201;28;20024;-71
2022/01/14 05:42:21;;;;;;;86.07;15.88;;;;;;;0.25;96.02;103573.81;5019641;28;20131;-74
2022/01/14 05:44:47;;;;;;;91.65;15.32;;;;;;;0.22;95.86;103578.75;5051593;28;20123;-71
2022/01/14 05:47:12;;;;;;;65.32;14.25;;;;;;;0.20;95.82;103564.81;5030145;28;20033;-72
2022/01/14 05:49:39;;;;;;;59.03;14.23;;;;;;;0.18;96.04;103566.41;5044187;28;20032;-73
2022/01/14 05:52:04;;;;;;;30.67;11.40;;;;;;;0.17;96.11;103557.78;5019705;28;20423;-71
2022/01/14 05:54:30;;;;;;;71.13;13.95;;;;;;;0.15;96.05;103555.88;5018782;28;20549;-73
2022/01/14 05:56:56;;;;;;;46.33;12.65;;;;;;;0.15;95.77;103550.69;5028891;28;20503;-72
2022/01/14 05:59:24;;;;;;;52.25;12.25;;;;;;;0.15;96.02;103556.75;5014861;28;20103;-71
2022/01/14 06:01:49;;;;;;;80.25;15.27;;;;;;;0.10;95.87;103546.88;5033500;28;20024;-72
2022/01/14 06:04:15;;;;;;;33.70;12.10;;;;;;;0.11;95.73;103551.25;5035427;28;20032;-71
2022/01/14 06:06:40;;;;;;;40.13;13.02;;;;;;;0.10;96.19;103550.38;5019370;28;20493;-72
2022/01/14 06:09:06;;;;;;;55.15;14.13;;;;;;;0.07;95.86;103552.72;5019107;28;20485;-72
2022/01/14 06:11:31;;;;;;;49.97;14.13;;;;;;;0.08;95.94;103553.59;5032299;28;20037;-72
2022/01/14 06:13:57;;;;;;;50.08;13.75;;;;;;;0.07;96.12;103565.63;5046054;28;20027;-70
2022/01/14 06:16:24;;;;;;;48.65;12.48;;;;;;;0.04;96.05;103573.09;5035839;28;20035;-71
2022/01/14 06:18:50;;;;;;;17.25;9.57;;;;;;;0.05;96.10;103577.47;5039431;28;20048;-71
2022/01/14 06:21:16;;;;;;;61.15;13.05;;;;;;;0.03;96.19;103581.63;5018117;28;20480;-71
2022/01/14 06:23:42;;;;;;;55.03;12.00;;;;;;;0.03;96.46;103581.63;5034237;28;20085;-71
2022/01/14 06:26:08;;;;;;;45.35;12.32;;;;;;;0.01;96.33;103572.88;5031009;28;20067;-70
2022/01/14 06:28:34;;;;;;;36.15;11.65;;;;;;;0.01;96.24;103579.72;5048852;28;20033;-70
2022/01/14 06:31:00;;;;;;;47.45;11.90;;;;;;;0.01;96.29;103571.97;5031190;28;20037;-71
2022/01/14 06:33:26;;;;;;;29.80;10.98;;;;;;;0.04;95.75;103574.78;5030486;28;20139;-70
2022/01/14 06:35:54;;;;;;;63.15;13.70;;;;;;;0.01;95.94;103565.13;5051213;28;20110;-71
2022/01/14 06:38:20;;;;;;;55.72;12.25;;;;;;;0.02;96.32;103559.19;5034111;28;20492;-71
2022/01/14 06:40:47;;;;;;;65.43;14.88;;;;;;;0.02;96.26;103559.19;5049603;28;20082;-71
2022/01/14 06:43:14;;;;;;;39.90;12.15;;;;;;;0.01;96.26;103567.72;5050273;28;20028;-72
2022/01/14 06:45:39;;;;;;;59.53;13.02;;;;;;;0.03;96.22;103565.25;5019123;28;20035;-72
2022/01/14 06:48:05;;;;;;;83.35;15.73;;;;;;;0.03;96.41;103567.81;5034977;28;20032;-71
2022/01/14 06:50:33;;;;;;;61.58;14.98;;;;;;;0.03;96.05;103571.31;5029754;28;20029;-72
2022/01/14 06:52:58;;;;;;;64.43;13.07;;;;;;;0.02;96.26;103560.91;5028691;28;20024;-72
2022/01/14 06:55:24;;;;;;;58.30;14.55;;;;;;;0.04;95.96;103567.03;5029879;28;20115;-72
2022/01/14 06:57:49;;;;;;;37.33;15.90;;;;;;;0.02;96.19;103572.09;5038742;28;20028;-71
2022/01/14 07:00:17;;;;;;;72.38;16.17;;;;;;;0.02;96.16;103573.78;5039147;28;20029;-71
2022/01/14 07:02:44;;;;;;;91.05;15.95;;;;;;;0.01;96.31;103572.88;5054106;28;20509;-73
2022/01/14 07:05:11;;;;;;;102.30;17.35;;;;;;;-0.01;96.06;103572.75;5049776;28;20528;-69
2022/01/14 07:07:40;;;;;;;64.45;13.63;;;;;;;-0.02;96.02;103565.78;5055067;28;20115;-69
2022/01/14 07:10:07;;;;;;;115.53;17.73;;;;;;;-0.04;95.94;103567.38;5032915;28;20544;-69
2022/01/14 07:12:38;;;;;;;68.32;14.13;;;;;;;-0.03;96.22;103570.84;5049916;28;20060;-70
2022/01/14 07:15:08;;;;;;;113.53;15.25;;;;;;;-0.05;96.50;103565.56;5054220;28;20419;-69
2022/01/14 07:17:34;;;;;;;77.13;15.95;;;;;;;-0.04;96.05;103571.63;5054431;28;20025;-69
2022/01/14 07:20:06;;;;;;;128.70;15.95;;;;;;;-0.10;96.04;103564.34;5054840;28;20032;-70
2022/01/14 07:22:32;;;;;;;60.30;14.40;;;;;;;-0.09;96.25;103572.97;5048176;28;20039;-69
2022/01/14 07:25:01;;;;;;;118.30;17.30;;;;;;;-0.16;96.25;103561.28;5047605;28;20032;-70
2022/01/14 07:27:29;;;;;;;109.13;17.58;;;;;;;-0.15;96.48;103577.66;5047748;28;20060;-70
2022/01/14 07:29:55;;;;;;;131.40;17.50;;;;;;;-0.18;96.10;103570.56;5047746;28;20115;-71
2022/01/14 07:32:22;;;;;;;77.00;13.68;;;;;;;-0.19;96.41;103582.59;5044476;28;20031;-70
2022/01/14 07:34:48;;;;;;;92.75;16.77;;;;;;;-0.17;96.41;103590.44;5054136;28;20488;-68
2022/01/14 07:37:18;;;;;;;96.80;16.25;;;;;;;-0.16;96.37;103578.44;5037055;28;20151;-72
2022/01/14 07:39:47;;;;;;;40.53;12.50;;;;;;;-0.17;96.42;103572.38;5059922;28;20029;-69
2022/01/14 07:42:13;;;;;;;106.93;17.33;;;;;;;-0.19;96.65;103582.59;5033754;28;20469;-70
2022/01/14 07:44:39;;;;;;;99.18;15.15;;;;;;;-0.16;96.50;103583.59;5019474;28;20040;-69
2022/01/14 07:47:06;;;;;;;52.45;13.43;;;;;;;-0.14;96.41;103587.16;5029768;28;20055;-70
2022/01/14 07:49:32;;;;;;;150.52;18.92;;;;;;;-0.14;96.32;103585.50;5037572;28;21515;-69
2022/01/14 07:51:58;;;;;;;54.83;12.60;;;;;;;-0.13;96.33;103594.13;5035976;28;20033;-70
2022/01/14 07:54:24;;;;;;;80.25;15.98;;;;;;;-0.12;96.57;103581.34;5035278;28;20101;-70
2022/01/14 07:56:53;;;;;;;72.55;14.55;;;;;;;-0.12;96.66;103586.50;5052949;28;20034;-70
2022/01/14 07:59:24;;;;;;;145.80;20.85;;;;;;;-0.11;96.57;103588.31;5053099;28;20083;-70
2022/01/14 08:01:54;;;;;;;148.45;17.30;;;;;;;-0.13;96.44;103579.56;5045137;28;20060;-69
2022/01/14 08:04:21;;;;;;;112.60;14.38;;;;;;;-0.13;96.44;103566.69;5050980;28;20059;-70
2022/01/14 08:06:49;;;;;;;97.90;15.60;;;;;;;-0.12;96.56;103576.19;5063848;28;20040;-70
2022/01/14 08:09:17;;;;;;;77.68;15.30;;;;;;;-0.11;96.38;103561.66;5020518;28;20037;-70
2022/01/14 08:11:43;;;;;;;136.65;16.55;;;;;;;-0.14;96.54;103557.16;5053154;28;20421;-73
2022/01/14 08:14:09;;;;;;;143.80;21.17;;;;;;;-0.12;96.59;103550.41;5053651;28;20119;-73
2022/01/14 08:16:35;;;;;;;80.00;15.75;;;;;;;-0.09;96.32;103571.25;5035356;28;20051;-73
2022/01/14 08:19:03;;;;;;;111.43;19.83;;;;;;;-0.10;96.66;103560.84;5053759;28;20471;-73
2022/01/14 08:21:28;;;;;;;109.88;24.50;;;;;;;-0.09;96.62;103560.94;5036828;28;20029;-73
2022/01/14 08:23:54;;;;;;;134.63;21.85;;;;;;;-0.10;96.58;103564.34;5017639;28;20027;-73
2022/01/14 08:26:19;;;;;;;110.03;23.85;;;;;;;-0.07;96.47;103562.00;5033435;28;20048;-73
2022/01/14 08:28:48;;;;;;;115.93;19.00;;;;;;;-0.04;96.63;103572.53;5053882;28;20016;-73
2022/01/14 08:31:16;;;;;;;79.90;18.30;;;;;;;-0.02;96.48;103586.41;5035360;28;20052;-73
2022/01/14 08:33:44;;;;;;;139.52;21.75;;;;;;;0.01;96.34;103577.13;5044386;28;20067;-73
2022/01/14 08:36:10;;;;;;;65.68;17.60;;;;;;;0.04;96.79;103579.94;5052174;28;20574;-73
2022/01/14 08:38:37;;;;;;;156.77;20.98;;;;;;;0.06;96.54;103591.25;5035094;28;20032;-73
2022/01/14 08:41:03;;;;;;;127.60;22.70;;;;;;;0.11;nan;103587.34;5052570;28;20036;-73
2022/01/14 08:43:28;;;;;;;62.15;18.33;;;;;;;0.12;96.54;103571.09;5049634;28;20039;-73
2022/01/14 08:45:53;;;;;;;69.07;19.70;;;;;;;0.15;96.57;103594.53;5036949;28;20036;-73
2022/01/14 08:48:19;;;;;;;87.07;20.33;;;;;;;0.14;96.33;103585.91;5032140;28;20055;-73
2022/01/14 08:50:45;;;;;;;104.43;19.05;;;;;;;0.19;96.51;103582.75;5053732;28;20082;-73
2022/01/14 08:53:13;;;;;;;111.45;18.05;;;;;;;0.20;96.71;103575.13;5020731;28;20061;-73
2022/01/14 08:55:40;;;;;;;70.78;15.75;;;;;;;0.23;96.64;103590.88;5053435;28;20098;-73
2022/01/14 08:58:09;;;;;;;77.60;16.90;;;;;;;0.22;96.83;103601.06;5030943;28;20036;-73
2022/01/14 09:00:35;;;;;;;67.75;16.38;;;;;;;0.23;96.55;103579.63;5035372;28;20037;-72
2022/01/14 09:03:03;;;;;;;57.40;15.23;;;;;;;0.28;96.44;103584.34;5050136;28;20028;-72
2022/01/14 09:05:29;;;;;;;56.58;15.57;;;;;;;0.31;96.51;103575.94;5053355;28;20025;-73
2022/01/14 09:07:55;;;;;;;38.33;14.75;;;;;;;0.35;96.97;103570.25;5018768;28;20115;-73
2022/01/14 09:10:21;;;;;;;100.13;19.40;;;;;;;0.36;96.85;103565.97;5018510;28;20032;-73
2022/01/14 09:12:47;;;;;;;44.60;14.93;;;;;;;0.40;96.48;103576.63;5050535;28;20370;-73
2022/01/14 09:15:13;;;;;;;109.75;20.35;;;;;;;0.43;96.58;103587.19;5049055;28;20058;-73
2022/01/14 09:17:42;;;;;;;123.53;20.00;;;;;;;0.46;96.62;103578.75;5067886;28;20052;-73
2022/01/14 09:20:09;;;;;;;98.10;19.67;;;;;;;0.52;96.43;103579.22;5061509;28;20096;-72
2022/01/14 09:22:35;;;;;;;94.80;17.63;;;;;;;0.54;96.30;103581.91;5031702;28;20101;-72
2022/01/14 09:25:03;;;;;;;78.88;16.75;;;;;;;0.58;96.50;103583.94;5049079;28;20012;-73
2022/01/14 09:27:32;;;;;;;68.80;18.70;;;;;;;0.59;96.47;103598.63;5064461;28;20036;-72
2022/01/14 09:30:00;;;;;;;62.28;16.58;;;;;;;0.57;96.10;103593.34;5032334;28;20492;-73
2022/01/14 09:32:25;;;;;;;86.82;19.02;;;;;;;0.57;96.27;103601.09;5045389;28;20493;-73
2022/01/14 09:34:52;;;;;;;66.78;18.60;;;;;;;0.57;96.06;103598.50;5021991;28;20060;-73
2022/01/14 09:37:18;;;;;;;77.47;18.48;;;;;;;0.62;96.12;103591.13;5022065;28;20048;-73
2022/01/14 09:39:44;;;;;;;78.00;16.23;;;;;;;0.58;95.83;103595.16;5054725;28;20400;-74
2022/01/14 09:42:11;;;;;;;44.00;16.80;;;;;;;0.59;96.02;103599.53;5036409;28;20145;-75
2022/01/14 09:44:36;;;;;;;80.47;18.20;;;;;;;0.65;95.88;103604.25;5034603;28;20492;-75
2022/01/14 09:47:02;;;;;;;71.10;17.40;;;;;;;0.65;96.30;103599.09;5020071;28;20125;-74
2022/01/14 09:49:28;;;;;;;58.00;16.65;;;;;;;0.68;96.00;103619.97;5036750;28;20495;-74
2022/01/14 09:51:55;;;;;;;61.97;18.80;;;;;;;0.69;96.35;103609.75;5046762;28;20024;-73
2022/01/14 09:54:21;;;;;;;75.07;19.85;;;;;;;0.74;96.31;103611.78;5012091;28;20028;-74
2022/01/14 09:56:47;;;;;;;48.35;17.80;;;;;;;0.75;96.31;103609.31;5029650;28;20124;-74
2022/01/14 09:59:13;;;;;;;63.60;15.90;;;;;;;0.78;96.30;103613.78;5068455;28;20145;-74
2022/01/14 10:01:46;;;;;;;74.68;20.10;;;;;;;0.81;96.42;103614.00;5071253;28;20385;-73
2022/01/14 10:04:21;;;;;;;71.70;19.15;;;;;;;0.80;96.22;103622.53;5070236;28;20024;-74
2022/01/14 10:06:50;;;;;;;96.65;20.67;;;;;;;0.81;95.86;103619.19;5038060;28;20039;-74
2022/01/14 10:09:35;;;;;;;45.42;15.98;;;;;;;0.87;96.23;103619.63;5053179;28;20105;-74
2022/01/14 10:12:05;;;;;;;35.63;18.88;;;;;;;0.90;96.21;103613.78;5052440;28;20429;-74
2022/01/14 10:14:32;;;;;;;58.97;19.70;;;;;;;0.89;95.87;103617.13;5049119;28;20105;-74
2022/01/14 10:17:02;;;;;;;28.05;15.45;;;;;;;0.90;95.76;103609.50;5037118;28;20033;-74
2022/01/14 10:19:34;;;;;;;37.60;16.77;;;;;;;0.97;95.99;103613.44;5051730;28;20496;-74
2022/01/14 10:21:59;;;;;;;22.02;14.60;;;;;;;0.98;95.78;103602.34;5045586;28;20503;-74
2022/01/14 10:24:29;;;;;;;33.85;17.27;;;;;;;1.03;95.98;103612.22;5042751;28;20147;-74
2022/01/14 10:26:58;;;;;;;57.97;18.48;;;;;;;1.07;96.39;103609.84;5040472;28;20025;-74
2022/01/14 10:29:38;;;;;;;55.28;21.27;;;;;;;1.07;96.09;103613.31;5048767;28;20028;-74
2022/01/14 10:32:06;;;;;;;73.40;23.97;;;;;;;1.03;96.05;103613.88;5055330;28;20024;-74
2022/01/14 10:34:33;;;;;;;47.42;16.25;;;;;;;1.01;95.65;103595.69;5050870;28;20036;-74
2022/01/14 10:37:15;;;;;;;66.18;20.63;;;;;;;1.00;95.88;103606.78;5055218;28;20063;-74
2022/01/14 10:39:44;;;;;;;55.53;19.05;;;;;;;1.01;96.16;103597.38;5042918;28;20036;-74
2022/01/14 10:42:43;;;;;;;42.78;20.58;;;;;;;1.01;95.88;103598.28;5056852;28;20469;-74
2022/01/14 10:45:18;;;;;;;35.95;15.77;;;;;;;1.01;95.65;103603.44;5000138;28;20119;-74
2022/01/14 10:47:51;;;;;;;34.40;20.13;;;;;;;1.01;95.69;103600.84;5036323;28;20144;-74
2022/01/14 10:50:17;;;;;;;28.25;17.58;;;;;;;1.05;95.82;103602.00;5052834;28;20020;-74
2022/01/14 10:52:49;;;;;;;27.10;17.17;;;;;;;1.12;95.85;103595.56;5026803;28;20032;-74
2022/01/14 10:55:27;;;;;;;30.98;19.02;;;;;;;1.19;96.31;103592.63;5054905;28;20052;-74
2022/01/14 10:57:55;;;;;;;30.48;17.67;;;;;;;1.26;96.04;103581.03;5056207;28;20020;-74
2022/01/14 11:00:24;;;;;;;42.10;24.27;;;;;;;1.32;96.30;103584.06;5039878;28;20028;-74
2022/01/14 11:02:49;;;;;;;36.72;20.60;;;;;;;1.36;96.06;103581.78;5056292;28;20017;-74
2022/01/14 11:05:19;;;;;;;35.42;20.85;;;;;;;1.38;96.16;103580.22;5039128;28;20032;-74
2022/01/14 11:07:48;;;;;;;31.13;22.37;;;;;;;1.44;96.09;103576.25;5055940;28;20089;-74
2022/01/14 11:10:18;;;;;;;30.63;20.15;;;;;;;1.50;96.01;103574.13;5039395;28;20040;-74
2022/01/14 11:12:44;;;;;;;36.75;22.63;;;;;;;1.50;96.07;103566.38;5046767;28;20580;-75
2022/01/14 11:15:13;;;;;;;40.00;23.95;;;;;;;1.51;95.43;103565.59;5053068;28;20029;-74
2022/01/14 11:17:40;;;;;;;38.80;26.08;;;;;;;1.52;95.25;103565.69;5054962;28;20491;-75
2022/01/14 11:20:09;;;;;;;34.33;23.75;;;;;;;1.56;95.86;103561.63;5053760;28;20044;-74
2022/01/14 11:25:22;;;;;;;28.38;19.42;;;;;;;1.65;95.67;103559.69;5071700;28;20043;-74
2022/01/14 11:27:57;;;;;;;29.27;18.83;;;;;;;1.72;95.81;103569.66;5013907;28;20123;-75
2022/01/14 11:30:38;;;;;;;30.10;18.58;;;;;;;1.70;95.26;103567.75;5056034;28;20036;-74
2022/01/14 11:33:06;;;;;;;26.20;18.77;;;;;;;1.73;95.35;103563.66;5053218;28;20028;-74
2022/01/14 11:35:37;;;;;;;41.00;19.85;;;;;;;1.75;95.62;103570.63;5071983;28;20459;-74
2022/01/14 11:38:36;;;;;;;33.22;20.55;;;;;;;1.80;95.36;103565.00;5027311;28;20251;-74
2022/01/14 11:41:05;;;;;;;30.75;18.63;;;;;;;1.87;95.50;103568.91;5037858;28;20039;-74
2022/01/14 11:43:49;;;;;;;26.15;19.55;;;;;;;1.90;95.08;103563.94;5035327;28;20037;-74
2022/01/14 11:46:35;;;;;;;33.60;21.05;;;;;;;1.99;95.55;103572.28;5057489;28;20032;-74